sensor_id;sensor_type;location;lat;lon;timestamp;temperature;humidity
8226;DHT22;4154;48.810;9.012;2023-05-10T00:01:29;13.90;99.90
8226;DHT22;4154;48.810;9.012;2023-05-10T00:06:21;13.60;99.90
8226;DHT22;4154;48.810;9.012;2023-05-10T00:11:13;14.00;99.90
8226;DHT22;4154;48.810;9.012;2023-05-10T00:16:05;13.50;99.90
8226;DHT22;4154;48.810;9.012;2023-05-10T00:20:57;14.10;99.90
8226;DHT22;4154;48.810;9.012;2023-05-10T00:25:48;13.30;99.90
8226;DHT22;4154;48.810;9.012;2023-05-10T00:30:40;13.20;99.90
8226;DHT22;4154;48.810;9.012;2023-05-10T00:33:05;13.40;99.90
8226;DHT22;4154;48.810;9.012;2023-05-10T00:35:32;13.40;99.90
8226;DHT22;4154;48.810;9.012;2023-05-10T00:40:23;13.30;99.90
8226;DHT22;4154;48.810;9.012;2023-05-10T00:42:49;13.30;99.90
8226;DHT22;4154;48.810;9.012;2023-05-10T00:47:41;13.10;99.90
8226;DHT22;4154;48.810;9.012;2023-05-10T00:50:07;13.20;99.90
8226;DHT22;4154;48.810;9.012;2023-05-10T00:52:34;12.90;99.90
8226;DHT22;4154;48.810;9.012;2023-05-10T00:57:26;13.10;99.90
8226;DHT22;4154;48.810;9.012;2023-05-10T00:59:53;13.20;99.90
8226;DHT22;4154;48.810;9.012;2023-05-10T01:02:18;13.10;99.90
8226;DHT22;4154;48.810;9.012;2023-05-10T01:07:10;13.70;99.90
8226;DHT22;4154;48.810;9.012;2023-05-10T01:09:36;13.20;99.90
8226;DHT22;4154;48.810;9.012;2023-05-10T01:14:32;13.20;99.90
8226;DHT22;4154;48.810;9.012;2023-05-10T01:16:59;13.20;99.90
8226;DHT22;4154;48.810;9.012;2023-05-10T01:19:27;13.00;99.90
8226;DHT22;4154;48.810;9.012;2023-05-10T01:36:19;13.10;99.90
8226;DHT22;4154;48.810;9.012;2023-05-10T01:39:02;13.10;99.90
8226;DHT22;4154;48.810;9.012;2023-05-10T01:42:10;13.00;99.90
8226;DHT22;4154;48.810;9.012;2023-05-10T01:44:40;13.00;99.90
8226;DHT22;4154;48.810;9.012;2023-05-10T01:47:17;12.90;99.90
8226;DHT22;4154;48.810;9.012;2023-05-10T01:49:55;13.10;99.90
8226;DHT22;4154;48.810;9.012;2023-05-10T01:52:32;13.00;99.90
8226;DHT22;4154;48.810;9.012;2023-05-10T01:55:05;12.90;99.90
8226;DHT22;4154;48.810;9.012;2023-05-10T01:57:36;13.10;99.90
8226;DHT22;4154;48.810;9.012;2023-05-10T02:00:06;13.10;99.90
8226;DHT22;4154;48.810;9.012;2023-05-10T02:02:37;13.30;99.90
8226;DHT22;4154;48.810;9.012;2023-05-10T02:05:06;13.10;99.90
8226;DHT22;4154;48.810;9.012;2023-05-10T02:07:35;13.10;99.90
8226;DHT22;4154;48.810;9.012;2023-05-10T02:10:06;13.00;99.90
8226;DHT22;4154;48.810;9.012;2023-05-10T02:12:36;13.10;99.90
8226;DHT22;4154;48.810;9.012;2023-05-10T02:15:07;13.10;99.90
8226;DHT22;4154;48.810;9.012;2023-05-10T02:17:37;13.10;99.90
8226;DHT22;4154;48.810;9.012;2023-05-10T02:20:05;12.80;99.90
8226;DHT22;4154;48.810;9.012;2023-05-10T02:22:35;13.20;99.90
8226;DHT22;4154;48.810;9.012;2023-05-10T02:25:02;13.10;99.90
8226;DHT22;4154;48.810;9.012;2023-05-10T02:27:29;13.10;99.90
8226;DHT22;4154;48.810;9.012;2023-05-10T02:29:56;13.10;99.90
8226;DHT22;4154;48.810;9.012;2023-05-10T02:32:25;13.50;99.90
8226;DHT22;4154;48.810;9.012;2023-05-10T02:34:53;13.20;99.90
8226;DHT22;4154;48.810;9.012;2023-05-10T02:37:21;13.00;99.90
8226;DHT22;4154;48.810;9.012;2023-05-10T02:39:49;13.10;99.90
8226;DHT22;4154;48.810;9.012;2023-05-10T02:42:18;13.30;99.90
8226;DHT22;4154;48.810;9.012;2023-05-10T02:44:48;13.10;99.90
8226;DHT22;4154;48.810;9.012;2023-05-10T02:47:15;12.90;99.90
8226;DHT22;4154;48.810;9.012;2023-05-10T02:49:43;12.90;99.90
8226;DHT22;4154;48.810;9.012;2023-05-10T02:54:41;13.30;99.90
8226;DHT22;4154;48.810;9.012;2023-05-10T02:57:15;13.10;99.90
8226;DHT22;4154;48.810;9.012;2023-05-10T02:59:44;12.90;99.90
8226;DHT22;4154;48.810;9.012;2023-05-10T03:02:14;13.20;99.90
8226;DHT22;4154;48.810;9.012;2023-05-10T03:04:40;13.00;99.90
8226;DHT22;4154;48.810;9.012;2023-05-10T03:09:32;13.10;99.90
8226;DHT22;4154;48.810;9.012;2023-05-10T03:12:27;13.40;99.90
8226;DHT22;4154;48.810;9.012;2023-05-10T03:15:03;13.10;99.90
8226;DHT22;4154;48.810;9.012;2023-05-10T03:17:55;13.10;99.90
8226;DHT22;4154;48.810;9.012;2023-05-10T03:20:36;13.10;99.90
8226;DHT22;4154;48.810;9.012;2023-05-10T03:26:28;13.10;99.90
8226;DHT22;4154;48.810;9.012;2023-05-10T03:28:55;13.10;99.90
8226;DHT22;4154;48.810;9.012;2023-05-10T03:33:51;13.10;99.90
8226;DHT22;4154;48.810;9.012;2023-05-10T03:36:18;13.00;99.90
8226;DHT22;4154;48.810;9.012;2023-05-10T03:38:44;12.90;99.90
8226;DHT22;4154;48.810;9.012;2023-05-10T03:41:10;13.40;99.90
8226;DHT22;4154;48.810;9.012;2023-05-10T03:46:03;13.20;99.90
8226;DHT22;4154;48.810;9.012;2023-05-10T03:48:29;12.90;99.90
8226;DHT22;4154;48.810;9.012;2023-05-10T03:50:55;13.50;99.90
8226;DHT22;4154;48.810;9.012;2023-05-10T03:53:21;13.70;99.90
8226;DHT22;4154;48.810;9.012;2023-05-10T03:55:48;13.30;99.90
8226;DHT22;4154;48.810;9.012;2023-05-10T03:58:14;13.00;99.90
8226;DHT22;4154;48.810;9.012;2023-05-10T04:00:40;13.20;99.90
8226;DHT22;4154;48.810;9.012;2023-05-10T04:03:11;13.10;99.90
8226;DHT22;4154;48.810;9.012;2023-05-10T04:05:37;13.00;99.90
8226;DHT22;4154;48.810;9.012;2023-05-10T04:08:04;13.20;99.90
8226;DHT22;4154;48.810;9.012;2023-05-10T04:10:30;13.30;99.90
8226;DHT22;4154;48.810;9.012;2023-05-10T04:12:56;13.00;99.90
8226;DHT22;4154;48.810;9.012;2023-05-10T04:17:48;13.20;99.90
8226;DHT22;4154;48.810;9.012;2023-05-10T04:22:40;12.90;99.90
8226;DHT22;4154;48.810;9.012;2023-05-10T04:25:06;13.10;99.90
8226;DHT22;4154;48.810;9.012;2023-05-10T04:27:32;13.10;99.90
8226;DHT22;4154;48.810;9.012;2023-05-10T04:32:24;13.20;99.90
8226;DHT22;4154;48.810;9.012;2023-05-10T04:34:50;13.00;99.90
8226;DHT22;4154;48.810;9.012;2023-05-10T04:39:46;13.40;99.90
8226;DHT22;4154;48.810;9.012;2023-05-10T04:42:12;12.90;99.90
8226;DHT22;4154;48.810;9.012;2023-05-10T04:47:06;13.30;99.90
8226;DHT22;4154;48.810;9.012;2023-05-10T04:51:58;13.20;99.90
8226;DHT22;4154;48.810;9.012;2023-05-10T04:56:50;13.20;99.90
8226;DHT22;4154;48.810;9.012;2023-05-10T05:01:41;13.30;99.90
8226;DHT22;4154;48.810;9.012;2023-05-10T05:04:07;13.30;99.90
8226;DHT22;4154;48.810;9.012;2023-05-10T05:08:59;13.00;99.90
8226;DHT22;4154;48.810;9.012;2023-05-10T05:11:25;13.30;99.90
8226;DHT22;4154;48.810;9.012;2023-05-10T05:13:51;13.20;99.90
8226;DHT22;4154;48.810;9.012;2023-05-10T05:18:43;13.30;99.90
8226;DHT22;4154;48.810;9.012;2023-05-10T05:21:18;13.40;99.90
8226;DHT22;4154;48.810;9.012;2023-05-10T05:23:45;13.20;99.90
8226;DHT22;4154;48.810;9.012;2023-05-10T05:26:11;13.70;99.90
8226;DHT22;4154;48.810;9.012;2023-05-10T05:31:05;13.30;99.90
8226;DHT22;4154;48.810;9.012;2023-05-10T05:33:31;13.40;99.90
8226;DHT22;4154;48.810;9.012;2023-05-10T05:38:26;13.50;99.90
8226;DHT22;4154;48.810;9.012;2023-05-10T05:43:18;13.30;99.90
8226;DHT22;4154;48.810;9.012;2023-05-10T05:45:43;13.50;99.90
8226;DHT22;4154;48.810;9.012;2023-05-10T05:50:35;13.50;99.90
8226;DHT22;4154;48.810;9.012;2023-05-10T05:55:27;13.50;99.90
8226;DHT22;4154;48.810;9.012;2023-05-10T06:00:19;14.00;99.90
8226;DHT22;4154;48.810;9.012;2023-05-10T06:05:11;13.40;99.90
8226;DHT22;4154;48.810;9.012;2023-05-10T06:07:37;13.70;99.90
8226;DHT22;4154;48.810;9.012;2023-05-10T06:12:28;13.70;99.90
8226;DHT22;4154;48.810;9.012;2023-05-10T06:17:20;13.50;99.90
8226;DHT22;4154;48.810;9.012;2023-05-10T06:19:46;13.50;99.90
8226;DHT22;4154;48.810;9.012;2023-05-10T06:24:38;13.80;99.90
8226;DHT22;4154;48.810;9.012;2023-05-10T06:29:31;13.80;99.90
8226;DHT22;4154;48.810;9.012;2023-05-10T06:34:23;13.50;99.90
8226;DHT22;4154;48.810;9.012;2023-05-10T06:39:14;14.10;99.90
8226;DHT22;4154;48.810;9.012;2023-05-10T06:41:40;14.00;99.90
8226;DHT22;4154;48.810;9.012;2023-05-10T06:44:06;14.10;99.90
8226;DHT22;4154;48.810;9.012;2023-05-10T06:46:31;13.90;99.90
8226;DHT22;4154;48.810;9.012;2023-05-10T06:48:57;14.10;99.90
8226;DHT22;4154;48.810;9.012;2023-05-10T06:51:23;14.00;99.90
8226;DHT22;4154;48.810;9.012;2023-05-10T06:56:14;14.00;99.90
8226;DHT22;4154;48.810;9.012;2023-05-10T07:01:09;14.10;99.90
8226;DHT22;4154;48.810;9.012;2023-05-10T07:03:35;14.20;99.90
8226;DHT22;4154;48.810;9.012;2023-05-10T07:06:02;14.10;99.90
8226;DHT22;4154;48.810;9.012;2023-05-10T07:08:35;14.20;99.90
8226;DHT22;4154;48.810;9.012;2023-05-10T07:11:05;14.20;99.90
8226;DHT22;4154;48.810;9.012;2023-05-10T07:13:35;14.30;99.90
8226;DHT22;4154;48.810;9.012;2023-05-10T07:16:02;14.10;99.90
8226;DHT22;4154;48.810;9.012;2023-05-10T07:18:28;14.30;99.90
8226;DHT22;4154;48.810;9.012;2023-05-10T07:20:54;14.30;99.90
8226;DHT22;4154;48.810;9.012;2023-05-10T07:23:20;14.50;99.90
8226;DHT22;4154;48.810;9.012;2023-05-10T07:25:47;14.50;99.90
8226;DHT22;4154;48.810;9.012;2023-05-10T07:28:16;14.40;99.90
8226;DHT22;4154;48.810;9.012;2023-05-10T07:30:42;14.50;99.90
8226;DHT22;4154;48.810;9.012;2023-05-10T07:33:09;15.60;99.90
8226;DHT22;4154;48.810;9.012;2023-05-10T07:35:36;14.60;99.90
8226;DHT22;4154;48.810;9.012;2023-05-10T07:40:28;14.60;99.90
8226;DHT22;4154;48.810;9.012;2023-05-10T07:42:55;14.60;99.90
8226;DHT22;4154;48.810;9.012;2023-05-10T07:45:22;14.60;99.90
8226;DHT22;4154;48.810;9.012;2023-05-10T07:47:49;14.60;99.90
8226;DHT22;4154;48.810;9.012;2023-05-10T07:50:15;14.30;99.90
8226;DHT22;4154;48.810;9.012;2023-05-10T07:52:41;14.90;99.90
8226;DHT22;4154;48.810;9.012;2023-05-10T07:55:07;14.70;99.90
8226;DHT22;4154;48.810;9.012;2023-05-10T07:57:38;14.80;99.90
8226;DHT22;4154;48.810;9.012;2023-05-10T08:00:07;14.70;99.90
8226;DHT22;4154;48.810;9.012;2023-05-10T08:02:35;14.60;99.90
8226;DHT22;4154;48.810;9.012;2023-05-10T08:05:01;14.60;99.90
8226;DHT22;4154;48.810;9.012;2023-05-10T08:07:26;14.50;99.90
8226;DHT22;4154;48.810;9.012;2023-05-10T08:12:18;14.50;99.90
8226;DHT22;4154;48.810;9.012;2023-05-10T08:14:44;14.60;99.90
8226;DHT22;4154;48.810;9.012;2023-05-10T08:19:36;14.70;99.90
8226;DHT22;4154;48.810;9.012;2023-05-10T08:24:27;14.70;99.90
8226;DHT22;4154;48.810;9.012;2023-05-10T08:29:19;14.90;99.90
8226;DHT22;4154;48.810;9.012;2023-05-10T08:34:11;14.70;99.90
8226;DHT22;4154;48.810;9.012;2023-05-10T08:36:36;14.60;99.90
8226;DHT22;4154;48.810;9.012;2023-05-10T08:41:30;14.60;99.90
8226;DHT22;4154;48.810;9.012;2023-05-10T08:43:59;15.00;99.90
8226;DHT22;4154;48.810;9.012;2023-05-10T08:46:30;14.90;99.90
8226;DHT22;4154;48.810;9.012;2023-05-10T08:49:04;15.00;99.90
8226;DHT22;4154;48.810;9.012;2023-05-10T08:51:36;15.00;99.90
8226;DHT22;4154;48.810;9.012;2023-05-10T08:54:05;15.40;99.90
8226;DHT22;4154;48.810;9.012;2023-05-10T08:56:31;15.10;99.90
8226;DHT22;4154;48.810;9.012;2023-05-10T08:58:57;15.20;99.90
8226;DHT22;4154;48.810;9.012;2023-05-10T09:01:24;15.30;99.90
8226;DHT22;4154;48.810;9.012;2023-05-10T09:03:51;15.20;99.90
8226;DHT22;4154;48.810;9.012;2023-05-10T09:06:18;15.30;99.90
8226;DHT22;4154;48.810;9.012;2023-05-10T09:08:44;15.20;99.90
8226;DHT22;4154;48.810;9.012;2023-05-10T09:11:12;15.30;99.90
8226;DHT22;4154;48.810;9.012;2023-05-10T09:13:38;15.30;99.90
8226;DHT22;4154;48.810;9.012;2023-05-10T09:16:04;15.60;99.90
8226;DHT22;4154;48.810;9.012;2023-05-10T09:18:30;15.40;99.90
8226;DHT22;4154;48.810;9.012;2023-05-10T09:20:56;15.30;99.90
8226;DHT22;4154;48.810;9.012;2023-05-10T09:26:02;15.20;99.90
8226;DHT22;4154;48.810;9.012;2023-05-10T09:28:33;14.90;99.90
8226;DHT22;4154;48.810;9.012;2023-05-10T09:31:15;15.70;99.90
8226;DHT22;4154;48.810;9.012;2023-05-10T09:33:48;15.80;99.90
8226;DHT22;4154;48.810;9.012;2023-05-10T09:36:14;15.30;99.90
8226;DHT22;4154;48.810;9.012;2023-05-10T09:38:51;15.30;99.90
8226;DHT22;4154;48.810;9.012;2023-05-10T09:41:25;15.30;99.90
8226;DHT22;4154;48.810;9.012;2023-05-10T09:43:55;15.50;99.90
8226;DHT22;4154;48.810;9.012;2023-05-10T09:46:22;15.50;99.90
8226;DHT22;4154;48.810;9.012;2023-05-10T09:48:48;15.10;99.90
8226;DHT22;4154;48.810;9.012;2023-05-10T09:51:21;15.50;99.90
8226;DHT22;4154;48.810;9.012;2023-05-10T09:53:48;15.30;99.90
8226;DHT22;4154;48.810;9.012;2023-05-10T09:56:34;15.30;99.90
8226;DHT22;4154;48.810;9.012;2023-05-10T09:59:06;15.00;99.90
8226;DHT22;4154;48.810;9.012;2023-05-10T10:01:34;15.60;99.90
8226;DHT22;4154;48.810;9.012;2023-05-10T10:04:08;15.40;99.90
8226;DHT22;4154;48.810;9.012;2023-05-10T10:06:38;15.10;99.90
8226;DHT22;4154;48.810;9.012;2023-05-10T10:09:05;15.50;99.10
8226;DHT22;4154;48.810;9.012;2023-05-10T10:11:35;15.70;99.90
8226;DHT22;4154;48.810;9.012;2023-05-10T10:14:02;15.60;99.90
8226;DHT22;4154;48.810;9.012;2023-05-10T10:16:29;15.70;98.90
8226;DHT22;4154;48.810;9.012;2023-05-10T10:18:56;15.90;99.60
8226;DHT22;4154;48.810;9.012;2023-05-10T10:21:22;15.80;99.90
8226;DHT22;4154;48.810;9.012;2023-05-10T10:23:49;15.80;99.90
8226;DHT22;4154;48.810;9.012;2023-05-10T10:26:15;15.80;99.90
8226;DHT22;4154;48.810;9.012;2023-05-10T10:37:04;15.70;99.90
8226;DHT22;4154;48.810;9.012;2023-05-10T10:39:30;15.80;99.90
8226;DHT22;4154;48.810;9.012;2023-05-10T10:41:57;15.80;97.90
8226;DHT22;4154;48.810;9.012;2023-05-10T10:50:04;15.50;99.90
8226;DHT22;4154;48.810;9.012;2023-05-10T10:52:36;15.50;99.90
8226;DHT22;4154;48.810;9.012;2023-05-10T10:55:20;15.20;99.90
8226;DHT22;4154;48.810;9.012;2023-05-10T10:57:52;15.40;99.90
8226;DHT22;4154;48.810;9.012;2023-05-10T11:03:05;15.40;99.90
8226;DHT22;4154;48.810;9.012;2023-05-10T11:05:36;15.20;99.90
8226;DHT22;4154;48.810;9.012;2023-05-10T11:08:12;15.50;97.50
8226;DHT22;4154;48.810;9.012;2023-05-10T11:13:37;15.50;96.80
8226;DHT22;4154;48.810;9.012;2023-05-10T11:16:19;15.50;99.90
8226;DHT22;4154;48.810;9.012;2023-05-10T11:19:07;15.70;99.90
8226;DHT22;4154;48.810;9.012;2023-05-10T11:21:48;15.70;99.90
8226;DHT22;4154;48.810;9.012;2023-05-10T11:24:17;15.70;96.90
8226;DHT22;4154;48.810;9.012;2023-05-10T11:29:14;15.80;99.90
8226;DHT22;4154;48.810;9.012;2023-05-10T11:31:44;15.60;99.90
8226;DHT22;4154;48.810;9.012;2023-05-10T11:36:59;15.70;99.90
8226;DHT22;4154;48.810;9.012;2023-05-10T11:39:29;15.40;99.90
8226;DHT22;4154;48.810;9.012;2023-05-10T11:41:56;15.50;99.90
8226;DHT22;4154;48.810;9.012;2023-05-10T11:44:23;15.50;99.90
8226;DHT22;4154;48.810;9.012;2023-05-10T11:51:41;15.30;99.90
8226;DHT22;4154;48.810;9.012;2023-05-10T11:54:10;15.40;96.50
8226;DHT22;4154;48.810;9.012;2023-05-10T11:56:40;15.30;97.00
8226;DHT22;4154;48.810;9.012;2023-05-10T11:59:06;15.40;99.90
8226;DHT22;4154;48.810;9.012;2023-05-10T12:01:33;15.50;99.90
8226;DHT22;4154;48.810;9.012;2023-05-10T12:03:59;15.50;97.20
8226;DHT22;4154;48.810;9.012;2023-05-10T12:06:31;15.60;97.00
8226;DHT22;4154;48.810;9.012;2023-05-10T12:08:59;15.20;99.90
8226;DHT22;4154;48.810;9.012;2023-05-10T12:11:30;15.60;99.90
8226;DHT22;4154;48.810;9.012;2023-05-10T12:13:56;15.80;99.90
8226;DHT22;4154;48.810;9.012;2023-05-10T12:16:31;16.30;99.90
8226;DHT22;4154;48.810;9.012;2023-05-10T12:18:58;16.00;96.20
8226;DHT22;4154;48.810;9.012;2023-05-10T12:21:26;16.00;95.80
8226;DHT22;4154;48.810;9.012;2023-05-10T12:23:54;16.00;99.90
8226;DHT22;4154;48.810;9.012;2023-05-10T12:26:24;16.00;95.60
8226;DHT22;4154;48.810;9.012;2023-05-10T12:29:11;16.10;96.00
8226;DHT22;4154;48.810;9.012;2023-05-10T12:31:53;16.00;99.90
8226;DHT22;4154;48.810;9.012;2023-05-10T12:34:30;16.10;95.30
8226;DHT22;4154;48.810;9.012;2023-05-10T12:36:57;16.10;95.50
8226;DHT22;4154;48.810;9.012;2023-05-10T12:39:23;16.50;99.90
8226;DHT22;4154;48.810;9.012;2023-05-10T12:41:49;16.30;99.90
8226;DHT22;4154;48.810;9.012;2023-05-10T12:51:33;16.10;99.90
8226;DHT22;4154;48.810;9.012;2023-05-10T12:53:58;16.00;99.90
8226;DHT22;4154;48.810;9.012;2023-05-10T12:56:24;16.00;95.20
8226;DHT22;4154;48.810;9.012;2023-05-10T12:58:50;16.00;99.90
8226;DHT22;4154;48.810;9.012;2023-05-10T13:06:08;16.20;99.90
8226;DHT22;4154;48.810;9.012;2023-05-10T13:11:01;16.20;93.70
8226;DHT22;4154;48.810;9.012;2023-05-10T13:18:20;16.20;99.90
8226;DHT22;4154;48.810;9.012;2023-05-10T13:28:04;16.30;99.90
8226;DHT22;4154;48.810;9.012;2023-05-10T13:30:30;16.00;99.90
8226;DHT22;4154;48.810;9.012;2023-05-10T13:35:22;16.40;99.90
8226;DHT22;4154;48.810;9.012;2023-05-10T13:45:07;16.50;93.60
8226;DHT22;4154;48.810;9.012;2023-05-10T13:57:20;16.60;99.30
8226;DHT22;4154;48.810;9.012;2023-05-10T13:59:46;16.80;92.20
8226;DHT22;4154;48.810;9.012;2023-05-10T14:07:04;16.80;92.30
8226;DHT22;4154;48.810;9.012;2023-05-10T14:09:31;16.60;99.70
8226;DHT22;4154;48.810;9.012;2023-05-10T14:14:23;16.70;99.20
8226;DHT22;4154;48.810;9.012;2023-05-10T14:19:14;16.50;95.30
8226;DHT22;4154;48.810;9.012;2023-05-10T14:21:40;16.50;99.90
8226;DHT22;4154;48.810;9.012;2023-05-10T14:26:32;16.60;93.00
8226;DHT22;4154;48.810;9.012;2023-05-10T14:31:25;16.60;92.20
8226;DHT22;4154;48.810;9.012;2023-05-10T14:33:51;16.70;92.90
8226;DHT22;4154;48.810;9.012;2023-05-10T14:38:44;17.20;99.60
8226;DHT22;4154;48.810;9.012;2023-05-10T14:41:09;16.70;91.80
8226;DHT22;4154;48.810;9.012;2023-05-10T14:43:39;16.80;99.50
8226;DHT22;4154;48.810;9.012;2023-05-10T14:46:05;16.40;98.90
8226;DHT22;4154;48.810;9.012;2023-05-10T14:48:30;16.70;91.80
8226;DHT22;4154;48.810;9.012;2023-05-10T14:53:22;16.60;92.40
8226;DHT22;4154;48.810;9.012;2023-05-10T14:58:14;16.60;93.30
8226;DHT22;4154;48.810;9.012;2023-05-10T15:00:40;16.80;99.70
8226;DHT22;4154;48.810;9.012;2023-05-10T15:03:06;16.70;92.30
8226;DHT22;4154;48.810;9.012;2023-05-10T15:05:32;16.60;92.10
8226;DHT22;4154;48.810;9.012;2023-05-10T15:10:23;16.70;99.90
8226;DHT22;4154;48.810;9.012;2023-05-10T15:12:50;16.80;93.20
8226;DHT22;4154;48.810;9.012;2023-05-10T15:17:41;16.70;91.50
8226;DHT22;4154;48.810;9.012;2023-05-10T15:20:07;16.80;92.00
8226;DHT22;4154;48.810;9.012;2023-05-10T15:25:00;16.80;99.00
8226;DHT22;4154;48.810;9.012;2023-05-10T15:29:52;16.90;99.50
8226;DHT22;4154;48.810;9.012;2023-05-10T15:34:44;16.70;99.40
8226;DHT22;4154;48.810;9.012;2023-05-10T15:42:02;16.70;98.50
8226;DHT22;4154;48.810;9.012;2023-05-10T15:44:29;16.70;98.40
8226;DHT22;4154;48.810;9.012;2023-05-10T16:03:59;17.00;98.90
8226;DHT22;4154;48.810;9.012;2023-05-10T16:06:25;17.10;98.20
8226;DHT22;4154;48.810;9.012;2023-05-10T16:11:17;16.80;91.30
8226;DHT22;4154;48.810;9.012;2023-05-10T16:13:42;16.70;99.00
8226;DHT22;4154;48.810;9.012;2023-05-10T16:18:34;16.70;99.90
8226;DHT22;4154;48.810;9.012;2023-05-10T16:23:26;16.80;92.60
8226;DHT22;4154;48.810;9.012;2023-05-10T16:28:19;16.30;98.90
8226;DHT22;4154;48.810;9.012;2023-05-10T16:30:46;16.50;99.40
8226;DHT22;4154;48.810;9.012;2023-05-10T16:33:12;16.50;99.10
8226;DHT22;4154;48.810;9.012;2023-05-10T16:35:39;16.30;99.00
8226;DHT22;4154;48.810;9.012;2023-05-10T16:38:05;16.40;99.70
8226;DHT22;4154;48.810;9.012;2023-05-10T16:40:31;16.40;99.70
8226;DHT22;4154;48.810;9.012;2023-05-10T16:42:57;16.20;99.90
8226;DHT22;4154;48.810;9.012;2023-05-10T16:52:43;16.30;92.90
8226;DHT22;4154;48.810;9.012;2023-05-10T16:55:09;16.30;92.80
8226;DHT22;4154;48.810;9.012;2023-05-10T17:04:54;16.50;99.90
8226;DHT22;4154;48.810;9.012;2023-05-10T17:07:20;16.30;99.90
8226;DHT22;4154;48.810;9.012;2023-05-10T17:17:05;16.00;99.90
8226;DHT22;4154;48.810;9.012;2023-05-10T17:19:31;16.20;99.90
8226;DHT22;4154;48.810;9.012;2023-05-10T17:21:57;16.20;99.90
8226;DHT22;4154;48.810;9.012;2023-05-10T17:24:23;16.20;93.70
8226;DHT22;4154;48.810;9.012;2023-05-10T17:26:49;15.90;99.90
8226;DHT22;4154;48.810;9.012;2023-05-10T17:34:07;16.00;94.40
8226;DHT22;4154;48.810;9.012;2023-05-10T17:36:32;16.30;99.90
8226;DHT22;4154;48.810;9.012;2023-05-10T17:38:58;15.60;97.00
8226;DHT22;4154;48.810;9.012;2023-05-10T17:41:25;15.80;99.90
8226;DHT22;4154;48.810;9.012;2023-05-10T17:43:50;16.10;99.90
8226;DHT22;4154;48.810;9.012;2023-05-10T17:46:16;16.10;99.90
8226;DHT22;4154;48.810;9.012;2023-05-10T17:48:42;15.90;94.10
8226;DHT22;4154;48.810;9.012;2023-05-10T17:56:01;15.60;99.90
8226;DHT22;4154;48.810;9.012;2023-05-10T17:58:27;15.70;99.90
8226;DHT22;4154;48.810;9.012;2023-05-10T18:00:53;15.60;93.30
8226;DHT22;4154;48.810;9.012;2023-05-10T18:03:19;15.20;99.90
8226;DHT22;4154;48.810;9.012;2023-05-10T18:05:46;15.60;99.90
8226;DHT22;4154;48.810;9.012;2023-05-10T18:10:38;15.10;99.90
8226;DHT22;4154;48.810;9.012;2023-05-10T18:15:31;15.50;99.90
8226;DHT22;4154;48.810;9.012;2023-05-10T18:18:01;15.20;93.60
8226;DHT22;4154;48.810;9.012;2023-05-10T18:20:28;15.10;99.90
8226;DHT22;4154;48.810;9.012;2023-05-10T18:22:55;14.90;99.90
8226;DHT22;4154;48.810;9.012;2023-05-10T18:25:22;14.90;99.90
8226;DHT22;4154;48.810;9.012;2023-05-10T18:27:48;15.00;99.90
8226;DHT22;4154;48.810;9.012;2023-05-10T18:32:40;14.90;94.20
8226;DHT22;4154;48.810;9.012;2023-05-10T18:35:06;15.00;99.90
8226;DHT22;4154;48.810;9.012;2023-05-10T18:37:33;15.30;99.90
8226;DHT22;4154;48.810;9.012;2023-05-10T18:39:59;14.70;99.90
8226;DHT22;4154;48.810;9.012;2023-05-10T18:42:25;14.80;99.90
8226;DHT22;4154;48.810;9.012;2023-05-10T18:44:51;14.60;99.90
8226;DHT22;4154;48.810;9.012;2023-05-10T18:47:17;14.40;99.90
8226;DHT22;4154;48.810;9.012;2023-05-10T18:49:43;14.70;99.90
8226;DHT22;4154;48.810;9.012;2023-05-10T18:52:10;14.70;96.00
8226;DHT22;4154;48.810;9.012;2023-05-10T18:57:03;14.50;99.90
8226;DHT22;4154;48.810;9.012;2023-05-10T19:01:55;14.50;99.90
8226;DHT22;4154;48.810;9.012;2023-05-10T19:06:47;14.40;99.90
8226;DHT22;4154;48.810;9.012;2023-05-10T19:11:40;14.40;99.90
8226;DHT22;4154;48.810;9.012;2023-05-10T19:14:07;14.50;99.90
8226;DHT22;4154;48.810;9.012;2023-05-10T19:18:59;14.70;99.90
8226;DHT22;4154;48.810;9.012;2023-05-10T19:21:25;14.40;96.90
8226;DHT22;4154;48.810;9.012;2023-05-10T19:26:18;14.00;99.90
8226;DHT22;4154;48.810;9.012;2023-05-10T19:31:10;14.30;97.00
8226;DHT22;4154;48.810;9.012;2023-05-10T19:33:35;14.40;99.90
8226;DHT22;4154;48.810;9.012;2023-05-10T19:38:28;14.30;99.90
8226;DHT22;4154;48.810;9.012;2023-05-10T19:40:54;14.10;99.90
8226;DHT22;4154;48.810;9.012;2023-05-10T19:43:29;14.10;99.90
8226;DHT22;4154;48.810;9.012;2023-05-10T19:46:00;14.40;99.90
8226;DHT22;4154;48.810;9.012;2023-05-10T19:48:27;13.90;99.90
8226;DHT22;4154;48.810;9.012;2023-05-10T19:50:58;14.20;99.90
8226;DHT22;4154;48.810;9.012;2023-05-10T19:53:25;13.90;99.90
8226;DHT22;4154;48.810;9.012;2023-05-10T19:55:52;13.90;99.90
8226;DHT22;4154;48.810;9.012;2023-05-10T19:58:18;13.90;99.90
8226;DHT22;4154;48.810;9.012;2023-05-10T20:00:44;13.80;99.90
8226;DHT22;4154;48.810;9.012;2023-05-10T20:05:36;13.90;99.90
8226;DHT22;4154;48.810;9.012;2023-05-10T20:08:01;13.80;99.90
8226;DHT22;4154;48.810;9.012;2023-05-10T20:10:27;14.00;99.90
8226;DHT22;4154;48.810;9.012;2023-05-10T20:12:53;14.30;99.90
8226;DHT22;4154;48.810;9.012;2023-05-10T20:15:22;13.90;99.90
8226;DHT22;4154;48.810;9.012;2023-05-10T20:17:48;13.90;99.90
8226;DHT22;4154;48.810;9.012;2023-05-10T20:22:43;13.70;99.90
8226;DHT22;4154;48.810;9.012;2023-05-10T20:25:09;13.90;98.80
8226;DHT22;4154;48.810;9.012;2023-05-10T20:27:35;13.90;99.90
8226;DHT22;4154;48.810;9.012;2023-05-10T20:30:01;13.90;99.90
8226;DHT22;4154;48.810;9.012;2023-05-10T20:32:28;13.70;99.90
8226;DHT22;4154;48.810;9.012;2023-05-10T20:34:54;13.80;99.90
8226;DHT22;4154;48.810;9.012;2023-05-10T20:39:47;14.30;99.90
8226;DHT22;4154;48.810;9.012;2023-05-10T20:42:13;13.80;98.50
8226;DHT22;4154;48.810;9.012;2023-05-10T20:44:38;13.70;99.90
8226;DHT22;4154;48.810;9.012;2023-05-10T20:47:04;13.40;99.90
8226;DHT22;4154;48.810;9.012;2023-05-10T20:49:30;13.60;99.90
8226;DHT22;4154;48.810;9.012;2023-05-10T20:51:56;13.70;98.30
8226;DHT22;4154;48.810;9.012;2023-05-10T20:54:22;13.40;99.90
8226;DHT22;4154;48.810;9.012;2023-05-10T20:59:17;13.50;99.90
8226;DHT22;4154;48.810;9.012;2023-05-10T21:01:44;13.60;99.90
8226;DHT22;4154;48.810;9.012;2023-05-10T21:04:10;13.20;99.90
8226;DHT22;4154;48.810;9.012;2023-05-10T21:06:36;13.40;99.90
8226;DHT22;4154;48.810;9.012;2023-05-10T21:09:02;13.30;99.90
8226;DHT22;4154;48.810;9.012;2023-05-10T21:11:28;13.70;99.90
8226;DHT22;4154;48.810;9.012;2023-05-10T21:13:54;13.40;99.90
8226;DHT22;4154;48.810;9.012;2023-05-10T21:18:45;12.90;99.90
8226;DHT22;4154;48.810;9.012;2023-05-10T21:21:11;13.20;99.90
8226;DHT22;4154;48.810;9.012;2023-05-10T21:23:37;12.60;99.90
8226;DHT22;4154;48.810;9.012;2023-05-10T21:28:29;12.90;99.90
8226;DHT22;4154;48.810;9.012;2023-05-10T21:30:55;12.80;99.90
8226;DHT22;4154;48.810;9.012;2023-05-10T21:33:21;13.20;99.90
8226;DHT22;4154;48.810;9.012;2023-05-10T21:35:47;12.60;99.90
8226;DHT22;4154;48.810;9.012;2023-05-10T21:38:12;12.70;99.90
8226;DHT22;4154;48.810;9.012;2023-05-10T21:40:38;12.60;99.90
8226;DHT22;4154;48.810;9.012;2023-05-10T21:43:04;12.80;99.80
8226;DHT22;4154;48.810;9.012;2023-05-10T21:48:00;12.60;99.90
8226;DHT22;4154;48.810;9.012;2023-05-10T21:50:27;12.90;99.90
8226;DHT22;4154;48.810;9.012;2023-05-10T21:52:53;12.60;99.90
8226;DHT22;4154;48.810;9.012;2023-05-10T21:55:19;12.90;99.90
8226;DHT22;4154;48.810;9.012;2023-05-10T22:00:12;12.60;99.90